Time;durP1;ratioP1;P1;durP2;ratioP2;P2;SDS_P1;SDS_P2;PMS_P1;PMS_P2;Temp;Humidity;BMP_temperature;BMP_pressure;BME280_temperature;BME280_humidity;BME280_pressure;Samples;Min_cycle;Max_cycle;Signal;HPM_P1;HPM_P2
2024/04/05 00:02:07;;;;;;;8.43;3.40;;;12.20;91.60;;;;;;6204017;28;20831;-58
2024/04/05 00:05:16;;;;;;;4.20;3.80;;;12.10;91.80;;;;;;6205392;28;20443;-58
2024/04/05 00:08:24;;;;;;;3.80;3.20;;;11.90;91.90;;;;;;6197886;28;20473;-59
2024/04/05 00:11:28;;;;;;;4.07;2.63;;;11.80;92.10;;;;;;6185591;28;20580;-58
2024/04/05 00:14:42;;;;;;;4.20;2.70;;;11.70;92.40;;;;;;6202816;28;20964;-59
2024/04/05 00:17:48;;;;;;;5.20;2.53;;;11.50;93.80;;;;;;6208406;28;20621;-58
2024/04/05 00:20:55;;;;;;;2.53;2.33;;;11.50;93.80;;;;;;6200635;28;20869;-58
2024/04/05 00:24:04;;;;;;;2.80;2.50;;;11.50;94.00;;;;;;6199419;28;20872;-58
2024/04/05 00:27:08;;;;;;;2.57;1.80;;;11.40;94.90;;;;;;6184931;28;20461;-58
2024/04/05 00:30:15;;;;;;;3.20;2.20;;;11.20;95.90;;;;;;6184569;28;20449;-58
2024/04/05 00:33:19;;;;;;;5.37;2.60;;;11.10;96.00;;;;;;6201346;28;20480;-58
2024/04/05 00:36:23;;;;;;;3.40;2.63;;;11.10;96.30;;;;;;6193041;28;20964;-58
2024/04/05 00:39:28;;;;;;;2.00;1.90;;;11.10;96.20;;;;;;6208664;28;20463;-59
2024/04/05 00:42:34;;;;;;;7.70;2.03;;;11.20;96.00;;;;;;6209464;28;20963;-59
2024/04/05 00:45:39;;;;;;;2.13;1.93;;;11.20;95.90;;;;;;6208724;28;20463;-58
2024/04/05 00:48:43;;;;;;;2.37;1.90;;;11.30;95.90;;;;;;6209098;28;20498;-58
2024/04/05 00:51:55;;;;;;;2.73;2.53;;;11.40;96.00;;;;;;6192794;28;20731;-58
2024/04/05 00:55:00;;;;;;;4.47;2.40;;;11.50;96.20;;;;;;6208722;28;20806;-59
2024/04/05 00:58:05;;;;;;;2.43;2.23;;;11.60;96.10;;;;;;6208316;28;20462;-58
2024/04/05 01:01:17;;;;;;;2.37;2.00;;;11.60;96.00;;;;;;6201506;28;20499;-59
2024/04/05 01:04:20;;;;;;;2.53;2.30;;;11.70;95.50;;;;;;6200305;28;20763;-59
2024/04/05 01:07:38;;;;;;;2.47;2.27;;;11.90;95.30;;;;;;6183536;28;21033;-58
2024/04/05 01:10:50;;;;;;;2.60;2.20;;;12.00;94.90;;;;;;6177478;28;20764;-58
2024/04/05 01:13:54;;;;;;;3.23;2.93;;;12.10;94.70;;;;;;6207123;28;20498;-58
2024/04/05 01:16:59;;;;;;;2.70;2.40;;;12.20;94.80;;;;;;6204160;28;20494;-58
2024/04/05 01:20:04;;;;;;;3.20;2.40;;;12.20;94.80;;;;;;6208237;28;20486;-58
2024/04/05 01:23:27;;;;;;;3.53;2.93;;;12.20;94.50;;;;;;6200172;28;20484;-58
2024/04/05 01:26:34;;;;;;;4.00;2.20;;;12.30;94.30;;;;;;6198940;28;20453;-58
2024/04/05 01:29:40;;;;;;;2.20;2.00;;;12.30;94.10;;;;;;6212878;28;20467;-58
2024/04/05 01:32:48;;;;;;;2.40;2.20;;;12.40;93.80;;;;;;6183515;28;20786;-58
2024/04/05 01:36:01;;;;;;;3.47;2.20;;;12.40;93.60;;;;;;6178572;28;20503;-59
2024/04/05 01:39:06;;;;;;;2.57;2.33;;;12.30;93.30;;;;;;6183703;28;20449;-58
2024/04/05 01:42:15;;;;;;;2.83;2.03;;;12.40;93.40;;;;;;6182775;28;20793;-58
2024/04/05 01:45:18;;;;;;;4.07;2.03;;;12.40;93.40;;;;;;6183201;28;20511;-58
2024/04/05 01:48:24;;;;;;;1.93;1.83;;;12.40;93.40;;;;;;6182864;28;20463;-59
2024/04/05 01:51:26;;;;;;;2.40;1.93;;;12.30;93.60;;;;;;6183598;28;20444;-58
2024/04/05 01:54:29;;;;;;;2.47;1.90;;;12.40;93.60;;;;;;6183359;28;20801;-58
2024/04/05 01:57:39;;;;;;;2.97;1.73;;;12.40;93.90;;;;;;6183295;28;20445;-59
2024/04/05 02:00:42;;;;;;;2.87;1.80;;;12.50;94.00;;;;;;6200004;28;20456;-59
2024/04/05 02:03:45;;;;;;;3.10;2.40;;;12.50;94.60;;;;;;6228900;28;20476;-58
2024/04/05 02:06:51;;;;;;;2.30;2.00;;;12.40;95.10;;;;;;6231948;28;20480;-58
2024/04/05 02:09:56;;;;;;;2.50;1.90;;;12.30;95.60;;;;;;6231597;28;20451;-58
2024/04/05 02:13:17;;;;;;;3.13;2.27;;;12.20;96.40;;;;;;6216562;28;20486;-58
2024/04/05 02:16:18;;;;;;;3.27;1.80;;;12.40;96.90;;;;;;6207491;28;20498;-58
2024/04/05 02:19:24;;;;;;;3.87;2.30;;;12.40;97.10;;;;;;6198742;28;20491;-58
2024/04/05 02:22:27;;;;;;;2.40;2.30;;;12.50;97.70;;;;;;6198427;28;20487;-58
2024/04/05 02:25:30;;;;;;;2.70;2.50;;;12.50;97.90;;;;;;6208445;28;20913;-60
2024/04/05 02:28:34;;;;;;;2.10;2.00;;;12.50;98.30;;;;;;6181277;28;20452;-58
2024/04/05 02:31:46;;;;;;;1.70;1.60;;;12.50;98.70;;;;;;6182091;28;20545;-58
2024/04/05 02:34:49;;;;;;;2.60;1.93;;;12.50;98.60;;;;;;6181516;28;20819;-58
2024/04/05 02:38:01;;;;;;;3.00;1.90;;;12.50;97.90;;;;;;6182142;28;20445;-59
2024/04/05 02:41:07;;;;;;;1.80;1.70;;;12.50;97.50;;;;;;6181459;28;20467;-58
2024/04/05 02:44:25;;;;;;;1.83;1.73;;;12.40;97.20;;;;;;6181831;28;20444;-58
2024/04/05 02:47:32;;;;;;;1.70;1.60;;;12.50;97.10;;;;;;6182462;28;20516;-58
2024/04/05 02:50:38;;;;;;;2.00;1.80;;;12.50;97.30;;;;;;6193585;28;20464;-58
2024/04/05 02:53:41;;;;;;;2.77;1.93;;;12.50;97.40;;;;;;6182751;28;20484;-59
2024/04/05 02:56:47;;;;;;;2.63;2.43;;;12.50;97.70;;;;;;6195299;28;20483;-58
2024/04/05 03:00:05;;;;;;;3.93;2.77;;;12.40;97.80;;;;;;6190715;28;20891;-59
2024/04/05 03:03:10;;;;;;;3.90;2.30;;;12.50;98.10;;;;;;6206264;28;20480;-59
2024/04/05 03:06:24;;;;;;;2.60;2.40;;;12.50;98.30;;;;;;6205533;28;20777;-60
2024/04/05 03:09:28;;;;;;;2.50;2.30;;;12.40;98.20;;;;;;6205550;28;20470;-59
2024/04/05 03:12:33;;;;;;;2.30;2.10;;;12.40;98.10;;;;;;6193155;28;20468;-58
2024/04/05 03:15:40;;;;;;;2.67;2.30;;;12.50;98.30;;;;;;6201469;28;20483;-58
2024/04/05 03:18:43;;;;;;;1.70;1.60;;;12.30;98.50;;;;;;6180618;28;20456;-59
2024/04/05 03:21:45;;;;;;;5.83;1.87;;;12.30;98.10;;;;;;6191262;28;20538;-58
2024/04/05 03:24:57;;;;;;;2.50;2.10;;;12.20;97.70;;;;;;6179960;28;20502;-58
2024/04/05 03:27:59;;;;;;;2.67;2.43;;;12.10;97.70;;;;;;6181095;28;20914;-58
2024/04/05 03:31:08;;;;;;;6.23;2.63;;;12.20;97.70;;;;;;6180709;28;20525;-58
2024/04/05 03:34:21;;;;;;;2.93;2.70;;;12.30;97.80;;;;;;6181435;28;20448;-58
2024/04/05 03:37:33;;;;;;;4.10;2.50;;;12.30;98.10;;;;;;6180538;28;20489;-59
2024/04/05 03:40:40;;;;;;;4.43;2.40;;;12.30;98.30;;;;;;6180619;28;20499;-59
2024/04/05 03:43:50;;;;;;;4.63;2.10;;;12.40;98.40;;;;;;6180444;28;20465;-59
2024/04/05 03:46:54;;;;;;;2.30;2.10;;;12.40;98.30;;;;;;6192890;28;20459;-60
2024/04/05 03:50:06;;;;;;;3.00;2.70;;;12.40;98.20;;;;;;6181163;28;20452;-60
2024/04/05 03:53:09;;;;;;;2.60;2.30;;;12.50;98.20;;;;;;6187438;28;20491;-59
2024/04/05 03:56:14;;;;;;;2.43;2.23;;;12.50;98.20;;;;;;6180633;28;20484;-60
2024/04/05 03:59:16;;;;;;;3.60;1.80;;;12.50;98.10;;;;;;6181385;28;20445;-59
2024/04/05 04:02:36;;;;;;;1.73;1.57;;;12.60;97.90;;;;;;6180405;28;20882;-60
2024/04/05 04:05:42;;;;;;;1.83;1.47;;;12.60;97.80;;;;;;6180358;28;20433;-60
2024/04/05 04:08:51;;;;;;;1.60;1.50;;;12.60;97.70;;;;;;6180291;28;20457;-59
2024/04/05 04:11:54;;;;;;;1.90;1.80;;;12.60;97.90;;;;;;6201757;28;20488;-60
2024/04/05 04:15:05;;;;;;;2.83;1.80;;;12.60;98.20;;;;;;6205556;28;20454;-59
2024/04/05 04:18:25;;;;;;;2.73;2.37;;;12.60;98.40;;;;;;6198047;28;20478;-59
2024/04/05 04:21:28;;;;;;;2.50;2.10;;;12.50;98.40;;;;;;6194016;28;20492;-60
2024/04/05 04:24:34;;;;;;;3.60;1.90;;;12.50;98.20;;;;;;6199182;28;20451;-59
2024/04/05 04:27:38;;;;;;;1.53;1.43;;;12.40;98.30;;;;;;6190679;28;20448;-59
2024/04/05 04:30:45;;;;;;;1.97;1.80;;;12.30;97.80;;;;;;6197422;28;20888;-60
2024/04/05 04:34:03;;;;;;;3.03;2.00;;;12.40;97.80;;;;;;6196825;28;20491;-60
2024/04/05 04:37:07;;;;;;;7.07;2.10;;;12.40;98.20;;;;;;6196897;28;20975;-60
2024/04/05 04:40:13;;;;;;;4.27;2.00;;;12.40;98.50;;;;;;6204581;28;20522;-58
2024/04/05 04:43:20;;;;;;;2.97;1.87;;;12.50;98.90;;;;;;6196365;28;20786;-59
2024/04/05 04:46:22;;;;;;;5.47;3.10;;;12.50;98.70;;;;;;6194397;28;20441;-59
2024/04/05 04:49:33;;;;;;;2.90;2.70;;;12.60;98.50;;;;;;6196043;28;20941;-59
2024/04/05 04:52:38;;;;;;;9.37;3.60;;;12.70;98.40;;;;;;6202895;28;20479;-60
2024/04/05 04:55:53;;;;;;;3.90;3.50;;;12.80;98.00;;;;;;6208969;28;20488;-59
2024/04/05 04:59:09;;;;;;;8.47;4.30;;;12.80;98.20;;;;;;6189211;28;20901;-59
2024/04/05 05:02:12;;;;;;;6.40;4.50;;;12.90;98.30;;;;;;6200482;28;20484;-59
2024/04/05 05:05:22;;;;;;;7.23;4.57;;;13.10;98.50;;;;;;6188341;28;20459;-59
2024/04/05 05:08:25;;;;;;;6.63;3.90;;;13.40;97.80;;;;;;6188706;28;20459;-60
2024/04/05 05:11:29;;;;;;;8.77;3.90;;;13.90;96.90;;;;;;6198949;28;20487;-59
2024/04/05 05:14:34;;;;;;;3.17;2.70;;;14.40;95.70;;;;;;6199017;28;20456;-59
2024/04/05 05:17:42;;;;;;;5.70;3.30;;;14.90;94.60;;;;;;6191119;28;20484;-59
2024/04/05 05:20:47;;;;;;;5.90;4.00;;;14.90;93.70;;;;;;6197844;28;20473;-59
2024/04/05 05:23:54;;;;;;;6.83;3.70;;;14.80;93.50;;;;;;6197586;28;20491;-59
2024/04/05 05:26:57;;;;;;;6.33;3.60;;;14.80;93.80;;;;;;6183008;28;20441;-60
2024/04/05 05:30:03;;;;;;;3.07;2.73;;;15.20;93.50;;;;;;6183930;28;20777;-59
2024/04/05 05:33:04;;;;;;;4.50;3.73;;;15.60;92.10;;;;;;6183354;28;20972;-60
2024/04/05 05:36:16;;;;;;;6.00;2.70;;;15.90;92.10;;;;;;6190473;28;20484;-60
2024/04/05 05:39:20;;;;;;;4.80;2.80;;;16.80;90.80;;;;;;6207777;28;20456;-60
2024/04/05 05:42:36;;;;;;;3.47;2.47;;;17.30;88.90;;;;;;6208037;28;20479;-59
2024/04/05 05:45:38;;;;;;;4.27;3.40;;;17.50;86.50;;;;;;6199230;28;20232;-60
2024/04/05 05:48:51;;;;;;;6.43;3.90;;;17.70;85.00;;;;;;6198806;28;20209;-60
2024/04/05 05:52:10;;;;;;;5.90;3.80;;;18.00;82.80;;;;;;6207499;28;20697;-59
2024/04/05 05:55:18;;;;;;;4.70;3.73;;;18.00;79.90;;;;;;6206879;28;20205;-59
2024/04/05 05:58:21;;;;;;;6.33;4.17;;;17.90;79.40;;;;;;6207093;28;20779;-58
2024/04/05 06:01:24;;;;;;;5.60;4.53;;;17.80;79.70;;;;;;6206182;28;20627;-59
2024/04/05 06:04:27;;;;;;;6.20;4.13;;;17.80;79.20;;;;;;6205566;28;20271;-58
2024/04/05 06:07:37;;;;;;;7.83;4.80;;;17.80;78.80;;;;;;6194164;28;20232;-60
2024/04/05 06:10:40;;;;;;;5.87;4.20;;;19.00;80.10;;;;;;6183415;28;20208;-60
2024/04/05 06:13:54;;;;;;;5.53;3.83;;;22.10;71.80;;;;;;6182610;28;20244;-59
2024/04/05 06:16:58;;;;;;;4.87;3.60;;;24.50;60.60;;;;;;6194781;28;20224;-59
2024/04/05 06:20:06;;;;;;;6.63;3.63;;;27.00;54.40;;;;;;6192522;28;20602;-61
2024/04/05 06:23:12;;;;;;;11.63;5.80;;;28.90;48.40;;;;;;6182505;28;20236;-61
2024/04/05 06:26:18;;;;;;;6.80;4.20;;;29.80;44.50;;;;;;6182099;28;20546;-61
2024/04/05 06:29:21;;;;;;;5.53;3.13;;;29.40;43.30;;;;;;6182949;28;20255;-61
2024/04/05 06:32:25;;;;;;;5.23;3.77;;;28.70;42.80;;;;;;6182552;28;20229;-61
2024/04/05 06:35:28;;;;;;;4.03;3.20;;;28.40;43.80;;;;;;6181911;28;20209;-60
2024/04/05 06:38:42;;;;;;;4.00;3.60;;;28.20;43.30;;;;;;6182758;28;20217;-60
2024/04/05 06:41:45;;;;;;;4.30;2.80;;;28.00;44.00;;;;;;6187208;28;20713;-60
2024/04/05 06:45:02;;;;;;;5.53;2.80;;;28.10;42.70;;;;;;6181941;28;20223;-61
2024/04/05 06:48:06;;;;;;;4.83;2.70;;;27.00;43.80;;;;;;6174916;28;20212;-60
2024/04/05 06:51:16;;;;;;;4.93;3.53;;;26.50;44.60;;;;;;6206521;28;20230;-60
2024/04/05 06:54:33;;;;;;;3.93;3.23;;;26.30;45.80;;;;;;6206354;28;20339;-60
2024/04/05 06:57:42;;;;;;;5.67;4.00;;;25.80;46.60;;;;;;6206050;28;20232;-59
2024/04/05 07:00:46;;;;;;;5.67;3.37;;;25.60;47.10;;;;;;6205992;28;20303;-60
2024/04/05 07:03:57;;;;;;;6.70;3.33;;;25.40;47.20;;;;;;6204249;28;20239;-60
2024/04/05 07:07:02;;;;;;;8.50;3.17;;;25.20;47.80;;;;;;6205300;28;20208;-60
2024/04/05 07:10:10;;;;;;;3.90;2.43;;;24.80;48.20;;;;;;6205883;28;20210;-60
2024/04/05 07:13:13;;;;;;;5.13;4.63;;;24.60;48.30;;;;;;6205936;28;20247;-60
2024/04/05 07:16:18;;;;;;;3.57;3.03;;;24.60;48.50;;;;;;6204362;28;20231;-60
2024/04/05 07:19:30;;;;;;;7.80;3.10;;;24.60;48.70;;;;;;6192613;28;20545;-61
2024/04/05 07:22:34;;;;;;;4.50;3.00;;;25.10;49.40;;;;;;6181452;28;20225;-62
2024/04/05 07:25:55;;;;;;;3.20;2.90;;;25.70;47.80;;;;;;6180708;28;20478;-60
2024/04/05 07:28:57;;;;;;;5.47;2.77;;;26.70;46.40;;;;;;6181306;28;20202;-60
2024/04/05 07:32:09;;;;;;;6.10;2.90;;;26.30;45.80;;;;;;6179560;28;20229;-61
2024/04/05 07:35:15;;;;;;;3.33;3.00;;;25.50;46.90;;;;;;6181158;28;20215;-61
2024/04/05 07:38:19;;;;;;;6.83;3.00;;;25.70;46.80;;;;;;6188542;28;20552;-60
2024/04/05 07:41:36;;;;;;;9.47;4.70;;;25.80;46.60;;;;;;6180449;28;20211;-59
2024/04/05 07:44:39;;;;;;;3.47;2.93;;;25.40;47.80;;;;;;6180806;28;20231;-61
2024/04/05 07:47:47;;;;;;;4.30;2.90;;;25.40;47.50;;;;;;6196782;28;20201;-60
2024/04/05 07:50:50;;;;;;;7.90;3.27;;;25.50;47.60;;;;;;6180897;28;20209;-60
2024/04/05 07:54:02;;;;;;;5.23;2.70;;;24.10;48.30;;;;;;6163187;28;20265;-60
2024/04/05 07:57:17;;;;;;;4.60;2.60;;;24.00;49.80;;;;;;6201945;28;20233;-59
2024/04/05 08:00:32;;;;;;;4.00;3.20;;;24.10;49.80;;;;;;6182236;28;20212;-59
2024/04/05 08:03:34;;;;;;;3.23;2.80;;;23.50;50.20;;;;;;6180687;28;20832;-59
2024/04/05 08:06:47;;;;;;;3.97;3.40;;;23.30;51.00;;;;;;6187657;28;20223;-59
2024/04/05 08:09:56;;;;;;;3.53;3.23;;;23.10;51.70;;;;;;6189365;28;20508;-59
2024/04/05 08:13:17;;;;;;;4.83;3.60;;;24.30;50.50;;;;;;6194769;28;20230;-59
2024/04/05 08:16:22;;;;;;;3.83;3.30;;;24.60;49.80;;;;;;6180519;28;20359;-59
2024/04/05 08:19:29;;;;;;;3.37;2.80;;;25.40;49.10;;;;;;6198760;28;20222;-60
2024/04/05 08:22:32;;;;;;;3.63;3.10;;;28.40;44.40;;;;;;6203681;28;20273;-60
2024/04/05 08:25:36;;;;;;;2.30;1.80;;;29.70;41.40;;;;;;6198141;28;20276;-60
2024/04/05 08:28:42;;;;;;;3.10;2.03;;;31.20;38.10;;;;;;6199465;28;20211;-60
2024/04/05 08:31:46;;;;;;;2.38;1.45;;;33.80;35.40;;;;;;6199243;28;20294;-60
2024/04/05 08:34:48;;;;;;;4.60;1.50;;;36.80;31.70;;;;;;6198357;28;20736;-60
2024/04/05 08:38:01;;;;;;;2.67;1.30;;;38.80;27.80;;;;;;6207620;28;20224;-59
2024/04/05 08:41:06;;;;;;;1.95;1.30;;;38.50;26.70;;;;;;6185949;28;20209;-60
2024/04/05 08:44:13;;;;;;;2.00;1.30;;;38.30;26.00;;;;;;6183641;28;20224;-60
2024/04/05 08:47:18;;;;;;;2.80;1.48;;;37.30;26.80;;;;;;6205319;28;20205;-62
2024/04/05 08:50:32;;;;;;;4.53;1.55;;;36.80;27.10;;;;;;6209174;28;20204;-62
2024/04/05 08:53:36;;;;;;;2.70;1.73;;;37.70;26.90;;;;;;6203780;28;20605;-63
2024/04/05 08:56:49;;;;;;;2.25;1.20;;;38.90;25.70;;;;;;6199203;28;20235;-59
2024/04/05 09:00:00;;;;;;;2.67;1.25;;;39.80;25.20;;;;;;6168327;28;20227;-60
2024/04/05 09:03:07;;;;;;;3.72;0.98;;;40.50;23.20;;;;;;6185649;28;20225;-61
2024/04/05 09:06:20;;;;;;;1.02;0.80;;;40.40;23.00;;;;;;6198728;28;20296;-61
2024/04/05 09:09:29;;;;;;;1.33;1.05;;;39.90;22.60;;;;;;6197784;28;20205;-60
2024/04/05 09:12:35;;;;;;;2.00;1.17;;;40.10;22.70;;;;;;6192739;28;20701;-60
2024/04/05 09:15:56;;;;;;;1.27;1.00;;;39.30;22.10;;;;;;6198135;28;20204;-60
2024/04/05 09:19:08;;;;;;;3.50;1.20;;;37.60;23.60;;;;;;6203822;28;20212;-60
2024/04/05 09:22:24;;;;;;;1.70;0.90;;;38.40;23.80;;;;;;6200066;28;20246;-61
2024/04/05 09:25:28;;;;;;;1.88;1.23;;;38.10;23.40;;;;;;6175359;28;20210;-62
2024/04/05 09:28:31;;;;;;;1.60;1.17;;;37.70;23.60;;;;;;6187092;28;20219;-62
2024/04/05 09:31:36;;;;;;;2.05;1.20;;;37.60;24.00;;;;;;6196230;28;20307;-60
2024/04/05 09:34:40;;;;;;;1.83;1.73;;;37.30;24.10;;;;;;6183709;28;20213;-62
2024/04/05 09:37:42;;;;;;;1.73;1.35;;;38.10;23.80;;;;;;6182779;28;20225;-60
2024/04/05 09:40:44;;;;;;;2.42;1.45;;;38.00;23.50;;;;;;6187125;28;20219;-60
2024/04/05 09:43:46;;;;;;;2.55;1.88;;;38.10;23.10;;;;;;6195831;28;20221;-61
2024/04/05 09:46:54;;;;;;;1.60;1.50;;;37.00;24.50;;;;;;6193117;28;20627;-59
2024/04/05 09:49:58;;;;;;;1.50;1.20;;;37.80;23.40;;;;;;6195614;28;20510;-58
2024/04/05 09:53:08;;;;;;;2.63;1.98;;;36.80;24.30;;;;;;6205561;28;20228;-61
2024/04/05 09:56:12;;;;;;;2.60;2.20;;;38.60;23.70;;;;;;6205564;28;20216;-60
2024/04/05 09:59:25;;;;;;;4.07;1.60;;;40.00;22.40;;;;;;6200653;28;20209;-61
2024/04/05 10:02:46;;;;;;;1.75;1.50;;;41.80;21.90;;;;;;6184273;28;20684;-61
2024/04/05 10:06:00;;;;;;;2.70;1.70;;;42.50;20.70;;;;;;6190845;28;20491;-60
2024/04/05 10:09:13;;;;;;;3.13;1.73;;;41.80;20.90;;;;;;6202821;28;20220;-61
2024/04/05 10:12:22;;;;;;;2.63;1.42;;;41.70;21.00;;;;;;6196751;28;20232;-61
2024/04/05 10:15:35;;;;;;;3.60;2.30;;;40.00;21.80;;;;;;6198816;28;20213;-60
2024/04/05 10:18:53;;;;;;;2.30;2.10;;;40.00;21.60;;;;;;6192677;28;20233;-60
2024/04/05 10:22:03;;;;;;;3.38;2.10;;;40.50;21.30;;;;;;6189713;28;20301;-61
2024/04/05 10:25:10;;;;;;;2.25;2.05;;;40.50;21.50;;;;;;6196872;28;20564;-61
2024/04/05 10:28:17;;;;;;;2.85;2.00;;;41.70;21.40;;;;;;6195985;28;20224;-60
2024/04/05 10:31:22;;;;;;;4.38;2.05;;;42.30;20.60;;;;;;6201957;28;20227;-61
2024/04/05 10:34:40;;;;;;;2.15;1.80;;;43.90;19.70;;;;;;6202051;28;20220;-60
2024/04/05 10:37:43;;;;;;;3.55;1.88;;;44.70;18.70;;;;;;6195747;28;20229;-60
2024/04/05 10:41:16;;;;;;;2.53;1.88;;;42.40;19.00;;;;;;6210073;28;20193;-60
2024/04/05 10:44:23;;;;;;;4.80;2.00;;;40.30;20.80;;;;;;6203969;28;20223;-61
2024/04/05 10:47:30;;;;;;;2.50;2.30;;;39.20;21.70;;;;;;6201436;28;20204;-61
2024/04/05 10:50:40;;;;;;;3.30;1.88;;;40.60;21.10;;;;;;6196202;28;20208;-59
2024/04/05 10:53:45;;;;;;;3.67;2.13;;;40.50;20.70;;;;;;6183894;28;20233;-61
2024/04/05 10:56:58;;;;;;;3.42;2.20;;;41.70;20.40;;;;;;6193415;28;20228;-61
2024/04/05 11:00:03;;;;;;;5.18;3.00;;;42.80;19.90;;;;;;6185473;28;20522;-61
2024/04/05 11:03:13;;;;;;;5.75;3.28;;;42.20;20.10;;;;;;6189576;28;20557;-61
2024/04/05 11:06:21;;;;;;;2.47;2.28;;;41.30;20.20;;;;;;6197941;28;20201;-60
2024/04/05 11:09:35;;;;;;;2.30;2.08;;;39.10;21.50;;;;;;6203956;28;20267;-60
2024/04/05 11:12:38;;;;;;;3.72;2.58;;;36.20;23.80;;;;;;6195875;28;20228;-60
2024/04/05 11:15:42;;;;;;;4.28;2.70;;;35.00;24.70;;;;;;6181538;28;20200;-61
2024/04/05 11:18:45;;;;;;;2.38;2.17;;;34.20;25.60;;;;;;6185220;28;20220;-62
2024/04/05 11:21:57;;;;;;;4.22;2.10;;;34.30;25.90;;;;;;6210168;28;20234;-61
2024/04/05 11:25:09;;;;;;;3.95;2.40;;;34.50;26.00;;;;;;6215488;28;20509;-60
2024/04/05 11:28:14;;;;;;;3.85;2.67;;;35.50;25.20;;;;;;6205326;28;20205;-59
2024/04/05 11:31:26;;;;;;;2.92;2.15;;;36.70;24.50;;;;;;6200137;28;20630;-62
2024/04/05 11:34:29;;;;;;;3.65;2.40;;;38.80;23.50;;;;;;6229163;28;20196;-62
2024/04/05 11:37:34;;;;;;;2.72;2.40;;;40.70;22.40;;;;;;6228151;28;20221;-62
2024/04/05 11:40:41;;;;;;;4.00;3.25;;;41.90;21.10;;;;;;6223871;28;20487;-61
2024/04/05 11:43:44;;;;;;;2.65;2.10;;;42.90;20.30;;;;;;6224274;28;20224;-61
2024/04/05 11:46:50;;;;;;;5.53;2.63;;;40.90;20.70;;;;;;6203195;28;20710;-60
2024/04/05 11:49:53;;;;;;;4.40;3.00;;;39.80;21.30;;;;;;6202957;28;20228;-62
2024/04/05 11:53:04;;;;;;;4.63;3.25;;;38.80;22.00;;;;;;6201841;28;20278;-61
2024/04/05 11:56:08;;;;;;;2.97;2.78;;;37.00;23.40;;;;;;6208129;28;20205;-61
2024/04/05 11:59:22;;;;;;;3.63;2.05;;;36.20;24.20;;;;;;6202290;28;20227;-61
2024/04/05 12:02:25;;;;;;;3.25;1.95;;;35.40;24.80;;;;;;6205606;28;20224;-61
2024/04/05 12:05:30;;;;;;;2.72;2.28;;;35.10;24.70;;;;;;6207937;28;20204;-62
2024/04/05 12:08:39;;;;;;;4.80;2.72;;;34.40;25.30;;;;;;6225044;28;20265;-62
2024/04/05 12:11:41;;;;;;;3.75;2.67;;;33.40;25.80;;;;;;6218368;28;20221;-61
2024/04/05 12:14:47;;;;;;;4.00;2.85;;;32.50;26.80;;;;;;6212334;28;20214;-60
2024/04/05 12:17:52;;;;;;;4.93;2.90;;;32.00;27.40;;;;;;6207986;28;20290;-60
2024/04/05 12:20:54;;;;;;;4.07;2.35;;;31.70;28.00;;;;;;6184680;28;20516;-61
2024/04/05 12:24:10;;;;;;;3.40;2.33;;;31.60;28.10;;;;;;6200389;28;21208;-61
2024/04/05 12:27:13;;;;;;;3.72;2.50;;;30.40;29.10;;;;;;6187664;28;20216;-62
2024/04/05 12:30:21;;;;;;;3.47;2.15;;;30.50;29.20;;;;;;6201380;28;20516;-62
2024/04/05 12:33:24;;;;;;;2.70;2.25;;;30.70;28.90;;;;;;6198330;28;20224;-61
2024/04/05 12:36:36;;;;;;;2.40;2.20;;;31.10;28.80;;;;;;6194875;28;20284;-62
2024/04/05 12:39:48;;;;;;;4.95;2.20;;;31.20;28.50;;;;;;6195263;28;20208;-62
2024/04/05 12:42:52;;;;;;;2.45;1.77;;;30.10;29.00;;;;;;6188051;28;20258;-62
2024/04/05 12:45:59;;;;;;;2.55;2.00;;;29.70;29.80;;;;;;6192006;28;20212;-62
2024/04/05 12:49:04;;;;;;;2.30;2.00;;;29.30;29.90;;;;;;6186737;28;20541;-61
2024/04/05 12:52:16;;;;;;;2.80;2.13;;;28.60;31.30;;;;;;6193474;28;20250;-61
2024/04/05 12:55:25;;;;;;;2.70;2.10;;;28.50;31.70;;;;;;6198714;28;20279;-62
2024/04/05 12:58:30;;;;;;;2.60;2.20;;;28.00;32.20;;;;;;6183230;28;20225;-62
2024/04/05 13:01:33;;;;;;;2.60;2.00;;;27.60;32.80;;;;;;6182271;28;20240;-61
2024/04/05 13:04:37;;;;;;;2.17;1.93;;;27.40;33.10;;;;;;6196483;28;20212;-62
2024/04/05 13:07:48;;;;;;;2.40;2.10;;;27.40;33.50;;;;;;6206820;28;20204;-62
2024/04/05 13:10:59;;;;;;;2.03;1.80;;;27.10;33.60;;;;;;6198975;28;20208;-61
2024/04/05 13:14:07;;;;;;;3.00;1.90;;;26.80;34.20;;;;;;6200699;28;20572;-60
2024/04/05 13:17:11;;;;;;;2.97;2.13;;;26.60;34.30;;;;;;6207035;28;20224;-60
2024/04/05 13:20:15;;;;;;;2.47;1.73;;;26.20;35.00;;;;;;6202489;28;20236;-61
2024/04/05 13:23:18;;;;;;;1.90;1.50;;;26.10;35.20;;;;;;6199587;28;20597;-65
2024/04/05 13:26:38;;;;;;;2.03;1.77;;;25.70;36.10;;;;;;6197890;28;20312;-61
2024/04/05 13:29:42;;;;;;;1.87;1.77;;;25.80;36.40;;;;;;6192475;28;20208;-60
2024/04/05 13:32:54;;;;;;;1.90;1.70;;;25.60;36.10;;;;;;6192810;28;20228;-60
2024/04/05 13:36:06;;;;;;;2.23;1.50;;;25.70;35.80;;;;;;6186100;28;20221;-61
2024/04/05 13:39:13;;;;;;;2.30;2.10;;;25.50;36.20;;;;;;6191804;28;20520;-61
2024/04/05 13:42:31;;;;;;;3.17;1.93;;;25.30;36.90;;;;;;6193282;28;20232;-61
2024/04/05 13:45:43;;;;;;;2.00;1.60;;;25.20;36.80;;;;;;6203712;28;20223;-60
2024/04/05 13:48:47;;;;;;;2.73;1.93;;;24.80;37.40;;;;;;6182100;28;20645;-60
2024/04/05 13:51:50;;;;;;;3.10;1.70;;;24.70;37.60;;;;;;6180946;28;20225;-60
2024/04/05 13:54:52;;;;;;;3.93;1.87;;;24.80;37.20;;;;;;6184630;28;20220;-61
2024/04/05 13:57:56;;;;;;;4.23;2.30;;;24.70;37.40;;;;;;6206002;28;20232;-60
2024/04/05 14:00:58;;;;;;;2.40;1.90;;;24.50;37.90;;;;;;6206746;28;20565;-61
2024/04/05 14:04:02;;;;;;;2.40;2.00;;;24.50;37.60;;;;;;6229394;28;20698;-60
2024/04/05 14:07:07;;;;;;;3.37;1.80;;;24.60;37.70;;;;;;6229664;28;20203;-61
2024/04/05 14:10:21;;;;;;;2.00;1.67;;;24.40;37.30;;;;;;6229222;28;20548;-61
2024/04/05 14:13:35;;;;;;;3.00;1.73;;;24.40;37.80;;;;;;6229072;28;20284;-60
2024/04/05 14:16:43;;;;;;;5.23;1.53;;;24.50;38.10;;;;;;6229314;28;20208;-61
2024/04/05 14:19:47;;;;;;;1.63;1.53;;;24.50;38.30;;;;;;6228998;28;20239;-62
2024/04/05 14:22:53;;;;;;;2.80;1.60;;;24.20;38.20;;;;;;6228746;28;20228;-61
2024/04/05 14:25:57;;;;;;;2.00;1.80;;;23.90;39.00;;;;;;6228431;28;20212;-60
2024/04/05 14:29:09;;;;;;;2.77;2.07;;;23.70;39.20;;;;;;6228274;28;20212;-61
2024/04/05 14:32:13;;;;;;;2.60;1.53;;;23.60;39.80;;;;;;6228961;28;20239;-61
2024/04/05 14:35:17;;;;;;;2.50;2.20;;;23.50;40.20;;;;;;6228472;28;20219;-61
2024/04/05 14:38:30;;;;;;;2.53;1.83;;;23.40;39.70;;;;;;6212228;28;20283;-61
2024/04/05 14:41:33;;;;;;;2.20;2.00;;;23.40;39.90;;;;;;6227968;28;20225;-60
2024/04/05 14:44:39;;;;;;;2.90;1.70;;;23.40;39.60;;;;;;6228040;28;20274;-60
2024/04/05 14:47:42;;;;;;;1.77;1.60;;;23.40;39.60;;;;;;6222979;28;20273;-60
2024/04/05 14:50:59;;;;;;;6.10;2.20;;;23.30;39.70;;;;;;6179983;28;20219;-60
2024/04/05 14:54:05;;;;;;;2.43;1.47;;;23.30;40.10;;;;;;6180195;28;20225;-60
2024/04/05 14:57:08;;;;;;;2.37;1.63;;;23.10;40.30;;;;;;6198343;28;20261;-60
2024/04/05 15:00:19;;;;;;;3.40;1.70;;;23.10;40.30;;;;;;6204080;28;20205;-60
2024/04/05 15:03:21;;;;;;;2.33;1.60;;;23.00;41.10;;;;;;6203784;28;20239;-60
2024/04/05 15:06:28;;;;;;;3.17;1.73;;;23.00;41.40;;;;;;6203703;28;20205;-60
2024/04/05 15:09:40;;;;;;;3.20;1.77;;;23.10;41.10;;;;;;6203556;28;20533;-60
2024/04/05 15:12:43;;;;;;;5.80;2.17;;;23.20;41.50;;;;;;6202351;28;20563;-60
2024/04/05 15:15:57;;;;;;;4.10;2.03;;;23.30;41.70;;;;;;6203150;28;20208;-61
2024/04/05 15:19:00;;;;;;;3.10;2.50;;;23.30;41.60;;;;;;6202810;28;20233;-61
2024/04/05 15:22:05;;;;;;;2.67;2.20;;;23.10;41.80;;;;;;6202841;28;20357;-60
2024/04/05 15:25:08;;;;;;;2.80;1.77;;;23.10;42.40;;;;;;6201045;28;20205;-61
2024/04/05 15:28:16;;;;;;;3.80;1.70;;;23.10;42.70;;;;;;6197570;28;20219;-60
2024/04/05 15:31:37;;;;;;;3.57;1.90;;;23.00;43.10;;;;;;6190037;28;20307;-60
2024/04/05 15:34:49;;;;;;;2.60;2.40;;;22.90;43.40;;;;;;6190514;28;20227;-60
2024/04/05 15:37:52;;;;;;;2.80;2.27;;;22.80;43.00;;;;;;6194445;28;20540;-60
2024/04/05 15:41:17;;;;;;;4.13;2.60;;;22.80;43.90;;;;;;6198131;28;20352;-61
2024/04/05 15:44:21;;;;;;;3.13;2.40;;;22.80;43.70;;;;;;6203018;28;20205;-62
2024/04/05 15:47:39;;;;;;;2.67;2.47;;;22.80;44.30;;;;;;6193232;28;20213;-61
2024/04/05 15:50:42;;;;;;;4.23;2.13;;;22.70;44.80;;;;;;6177513;28;20559;-60
2024/04/05 15:53:49;;;;;;;4.97;2.30;;;22.70;45.40;;;;;;6172178;28;20238;-61
2024/04/05 15:56:52;;;;;;;2.90;2.70;;;22.60;45.30;;;;;;6202297;28;20257;-60
2024/04/05 15:59:55;;;;;;;3.50;2.63;;;22.50;45.60;;;;;;6201361;28;20237;-60
2024/04/05 16:03:03;;;;;;;3.70;2.40;;;22.40;45.70;;;;;;6201605;28;20569;-60
2024/04/05 16:06:13;;;;;;;3.50;2.23;;;22.30;46.10;;;;;;6195871;28;20264;-61
2024/04/05 16:09:17;;;;;;;3.93;2.50;;;22.30;46.30;;;;;;6188120;28;20201;-61
2024/04/05 16:12:30;;;;;;;3.20;2.20;;;22.40;46.30;;;;;;6193074;28;20521;-61
2024/04/05 16:15:34;;;;;;;3.07;2.77;;;22.30;46.40;;;;;;6179890;28;20670;-61
2024/04/05 16:18:47;;;;;;;2.90;2.13;;;22.30;46.40;;;;;;6182108;28;20290;-60